Decoded Metar for LFSD (DIJON in FRANCE) (IATA:DIJ) | Meteo·Mobile Aviation Weather
aviador You're here:

LFSD Decoded Metar

DIJON in FRANCE
Report Time2020-02-23 11:30:00
UTC Time2020-02-23 11:49:42
Flight Rules vfr VFR
Wind180° at 13 kt
W.Decomp.*RWY 17: 12.8 kt HW 2.0 kt RCW
RWY 19: 12.8 kt HW 2.5 kt LCW
Visibility9999 m
Phenomena:N/A
Clouds:N/A
Expected CloudBase > 3,600 ft AGL from Temp-Dew spread
CeilingNone
Temp13°C (ISA -1)
Dew Point04°C (55% RH)
AAT7.0°C
QNH1028 hPa
Density Alt292 ft
Elevation745 ft
Report Wrong Elevation
Raw Report
METAR LFSD 231130Z AUTO 18013KT CAVOK 13/04 Q1028=

Extra information for LFSD:More info

Metar Taf Metar & Taf Last 4 Metars F.Rules Stats Wind Profile Meteogram Temp Stats Airport Information Weather charts Add Link Nearby VenuesMetar ALERT Operation Metar Decoded Social comments